Time;durP1;ratioP1;P1;durP2;ratioP2;P2;SDS_P1;SDS_P2;PMS_P1;PMS_P2;Temp;Humidity;BMP_temperature;BMP_pressure;BME280_temperature;BME280_humidity;BME280_pressure;Samples;Min_cycle;Max_cycle;Signal;HPM_P1;HPM_P2
2022/11/28 00:02:16;;;;;;;16.67;13.37;;;;;;;;;;5068344;28;20227;-76
2022/11/28 00:04:42;;;;;;;19.73;12.67;;;;;;;;;;5081914;28;20175;-76
2022/11/28 00:07:10;;;;;;;18.50;13.67;;;;;;;;;;5096821;28;20205;-75
2022/11/28 00:09:36;;;;;;;14.63;11.80;;;;;;;;;;5091509;28;20188;-75
2022/11/28 00:12:03;;;;;;;13.40;11.30;;;;;;;;;;5075955;28;20214;-80
2022/11/28 00:14:29;;;;;;;14.87;11.73;;;;;;;;;;5082674;28;20236;-76
2022/11/28 00:16:55;;;;;;;15.23;11.30;;;;;;;;;;5073256;28;20299;-78
2022/11/28 00:19:21;;;;;;;13.30;10.23;;;;;;;;;;5066534;28;20305;-75
2022/11/28 00:21:48;;;;;;;16.10;12.17;;;;;;;;;;5067365;28;20242;-75
2022/11/28 00:24:14;;;;;;;16.77;12.37;;;;;;;;;;5049951;28;20238;-78
2022/11/28 00:26:41;;;;;;;17.00;12.33;;;;;;;;;;5077807;28;20220;-76
2022/11/28 00:29:08;;;;;;;18.77;13.30;;;;;;;;;;5068076;28;20687;-77
2022/11/28 00:31:40;;;;;;;20.60;14.93;;;;;;;;;;5075440;28;20210;-76
2022/11/28 00:34:08;;;;;;;21.03;15.10;;;;;;;;;;5079208;28;20200;-79
2022/11/28 00:36:34;;;;;;;19.77;15.60;;;;;;;;;;5062670;28;20613;-78
2022/11/28 00:39:00;;;;;;;23.10;16.97;;;;;;;;;;5079482;28;20183;-77
2022/11/28 00:41:29;;;;;;;21.60;15.43;;;;;;;;;;5088715;28;20168;-76
2022/11/28 00:43:55;;;;;;;18.80;15.07;;;;;;;;;;5086842;28;20267;-77
2022/11/28 00:46:21;;;;;;;19.07;15.73;;;;;;;;;;5082095;28;20200;-79
2022/11/28 00:48:48;;;;;;;19.90;14.53;;;;;;;;;;5078099;28;20173;-77
2022/11/28 00:51:19;;;;;;;21.70;16.10;;;;;;;;;;5081444;28;20605;-76
2022/11/28 00:53:47;;;;;;;20.27;14.93;;;;;;;;;;5084514;28;20582;-78
2022/11/28 00:56:14;;;;;;;18.50;14.23;;;;;;;;;;5062501;28;20176;-77
2022/11/28 00:58:41;;;;;;;20.03;13.93;;;;;;;;;;5057798;28;20192;-76
2022/11/28 01:01:11;;;;;;;21.37;15.33;;;;;;;;;;5079390;28;20181;-76
2022/11/28 01:03:38;;;;;;;21.00;15.47;;;;;;;;;;5079951;28;20657;-79
2022/11/28 01:06:05;;;;;;;20.40;15.20;;;;;;;;;;5067963;28;20173;-77
2022/11/28 01:08:31;;;;;;;20.20;14.90;;;;;;;;;;5082927;28;20321;-77
2022/11/28 01:10:58;;;;;;;18.67;14.30;;;;;;;;;;5069537;28;20215;-76
2022/11/28 01:13:24;;;;;;;20.37;15.33;;;;;;;;;;5077542;28;20181;-77
2022/11/28 01:15:50;;;;;;;20.30;15.57;;;;;;;;;;5079978;28;20807;-77
2022/11/28 01:18:18;;;;;;;20.03;14.97;;;;;;;;;;5088287;28;20196;-80
2022/11/28 01:20:44;;;;;;;23.60;15.77;;;;;;;;;;5096539;28;20278;-77
2022/11/28 01:23:10;;;;;;;20.63;15.80;;;;;;;;;;5080853;28;20196;-76
2022/11/28 01:25:36;;;;;;;18.50;14.30;;;;;;;;;;5083151;28;20199;-76
2022/11/28 01:28:02;;;;;;;20.57;15.17;;;;;;;;;;5088739;28;20200;-76
2022/11/28 01:30:28;;;;;;;22.50;15.73;;;;;;;;;;5089101;28;20173;-78
2022/11/28 01:32:54;;;;;;;19.70;14.13;;;;;;;;;;5092202;28;20731;-78
2022/11/28 01:35:21;;;;;;;23.47;16.33;;;;;;;;;;5088800;28;20656;-79
2022/11/28 01:37:47;;;;;;;22.60;16.00;;;;;;;;;;5087072;28;20680;-78
2022/11/28 01:40:13;;;;;;;21.07;14.87;;;;;;;;;;5086054;28;20180;-79
2022/11/28 01:42:39;;;;;;;22.47;15.53;;;;;;;;;;5087300;28;20264;-77
2022/11/28 01:45:06;;;;;;;20.77;14.60;;;;;;;;;;5085123;28;20220;-76
2022/11/28 01:47:33;;;;;;;20.07;15.00;;;;;;;;;;5096270;28;20200;-77
2022/11/28 01:50:00;;;;;;;19.50;14.77;;;;;;;;;;5081124;28;20196;-76
2022/11/28 01:52:26;;;;;;;19.63;13.80;;;;;;;;;;5081049;28;20614;-77
2022/11/28 01:54:54;;;;;;;21.10;14.70;;;;;;;;;;5079915;28;20211;-76
2022/11/28 01:57:21;;;;;;;20.07;14.13;;;;;;;;;;5067549;28;20231;-76
2022/11/28 01:59:50;;;;;;;18.70;12.27;;;;;;;;;;5049423;28;20187;-79
2022/11/28 02:02:23;;;;;;;15.80;11.83;;;;;;;;;;5085262;28;20231;-78
2022/11/28 02:04:49;;;;;;;16.27;11.10;;;;;;;;;;5092172;28;20176;-76
2022/11/28 02:07:16;;;;;;;13.73;10.77;;;;;;;;;;5081226;28;20200;-77
2022/11/28 02:09:42;;;;;;;13.93;10.40;;;;;;;;;;5091384;28;20180;-77
2022/11/28 02:12:08;;;;;;;12.93;10.13;;;;;;;;;;5069013;28;20180;-78
2022/11/28 02:14:49;;;;;;;12.57;10.50;;;;;;;;;;5092584;28;20277;-79
2022/11/28 02:17:15;;;;;;;18.83;11.27;;;;;;;;;;5081078;28;20204;-76
2022/11/28 02:19:59;;;;;;;11.67;9.03;;;;;;;;;;5082230;28;20665;-76
2022/11/28 02:22:41;;;;;;;15.83;9.23;;;;;;;;;;5081884;28;20622;-77
2022/11/28 02:25:16;;;;;;;13.13;8.60;;;;;;;;;;5070769;28;20177;-77
2022/11/28 02:27:55;;;;;;;15.17;11.00;;;;;;;;;;5097379;28;20947;-79
2022/11/28 02:30:26;;;;;;;14.33;11.20;;;;;;;;;;5074861;28;20184;-77
2022/11/28 02:33:04;;;;;;;15.37;11.00;;;;;;;;;;5089416;28;20177;-77
2022/11/28 02:35:31;;;;;;;15.20;10.37;;;;;;;;;;5087076;28;20276;-77
2022/11/28 02:38:12;;;;;;;13.80;9.73;;;;;;;;;;5080954;28;20216;-77
2022/11/28 02:40:45;;;;;;;12.80;8.87;;;;;;;;;;5090970;28;20189;-76
2022/11/28 02:43:23;;;;;;;9.30;7.20;;;;;;;;;;5089110;28;20614;-78
2022/11/28 02:45:52;;;;;;;10.40;7.50;;;;;;;;;;5088506;28;20842;-77
2022/11/28 02:48:23;;;;;;;8.70;6.93;;;;;;;;;;5085138;28;20208;-76
2022/11/28 02:50:55;;;;;;;11.60;8.80;;;;;;;;;;5085153;28;20571;-78
2022/11/28 02:53:24;;;;;;;15.57;11.63;;;;;;;;;;5072383;28;20187;-77
2022/11/28 02:55:51;;;;;;;16.57;11.57;;;;;;;;;;5081483;28;20225;-78
2022/11/28 02:58:17;;;;;;;14.60;11.50;;;;;;;;;;5080068;28;20196;-77
2022/11/28 03:00:45;;;;;;;15.80;11.97;;;;;;;;;;5093684;28;20204;-77
2022/11/28 03:03:17;;;;;;;14.83;11.33;;;;;;;;;;5091351;28;20761;-75
2022/11/28 03:05:49;;;;;;;13.97;10.93;;;;;;;;;;5050516;28;20193;-76
2022/11/28 03:08:18;;;;;;;14.27;11.27;;;;;;;;;;5089913;28;20258;-76
2022/11/28 03:10:51;;;;;;;15.73;12.13;;;;;;;;;;5084866;28;20291;-76
2022/11/28 03:13:26;;;;;;;14.50;12.23;;;;;;;;;;5069852;28;20226;-76
2022/11/28 03:16:11;;;;;;;14.90;11.90;;;;;;;;;;5082151;28;20210;-77
2022/11/28 03:19:04;;;;;;;14.73;11.53;;;;;;;;;;5083643;28;20181;-76
2022/11/28 03:21:36;;;;;;;16.57;12.07;;;;;;;;;;5079422;28;20188;-77
2022/11/28 03:24:05;;;;;;;15.83;12.20;;;;;;;;;;5080327;28;20195;-77
2022/11/28 03:26:47;;;;;;;13.53;10.80;;;;;;;;;;5071373;28;20475;-77
2022/11/28 03:29:20;;;;;;;12.13;9.80;;;;;;;;;;5054633;28;20629;-77
2022/11/28 03:32:07;;;;;;;12.73;10.37;;;;;;;;;;5077966;28;20889;-78
2022/11/28 03:34:36;;;;;;;12.10;9.50;;;;;;;;;;5087699;28;20179;-76
2022/11/28 03:37:06;;;;;;;12.37;9.67;;;;;;;;;;5077718;28;20216;-77
2022/11/28 03:39:35;;;;;;;13.57;10.83;;;;;;;;;;5084205;28;20660;-77
2022/11/28 03:42:04;;;;;;;12.97;10.10;;;;;;;;;;5069967;28;20212;-78
2022/11/28 03:44:35;;;;;;;13.40;10.43;;;;;;;;;;5051987;28;20176;-76
2022/11/28 03:47:02;;;;;;;14.10;10.43;;;;;;;;;;5091480;28;20227;-77
2022/11/28 03:49:37;;;;;;;14.23;10.73;;;;;;;;;;5086114;28;20873;-76
2022/11/28 03:52:05;;;;;;;16.13;11.40;;;;;;;;;;5067820;28;20238;-78
2022/11/28 03:54:50;;;;;;;15.60;11.40;;;;;;;;;;5076265;28;20560;-77
2022/11/28 03:57:43;;;;;;;14.67;11.37;;;;;;;;;;5086555;28;20328;-76
2022/11/28 04:00:11;;;;;;;16.77;11.90;;;;;;;;;;5057293;28;20200;-76
2022/11/28 04:02:40;;;;;;;14.03;11.13;;;;;;;;;;5080096;28;20209;-77
2022/11/28 04:05:09;;;;;;;14.07;11.57;;;;;;;;;;5088802;28;20313;-76
2022/11/28 04:07:54;;;;;;;15.37;11.73;;;;;;;;;;5081399;28;20204;-76
2022/11/28 04:10:20;;;;;;;16.10;12.27;;;;;;;;;;5077894;28;20189;-80
2022/11/28 04:12:54;;;;;;;15.00;11.40;;;;;;;;;;5079919;28;20425;-76
2022/11/28 04:15:26;;;;;;;14.97;12.20;;;;;;;;;;5061878;28;20184;-80
2022/11/28 04:18:19;;;;;;;15.60;11.60;;;;;;;;;;5078570;28;20208;-76
2022/11/28 04:20:45;;;;;;;16.50;11.53;;;;;;;;;;5071438;28;20198;-76
2022/11/28 04:23:14;;;;;;;15.10;11.67;;;;;;;;;;5082205;28;20211;-76
2022/11/28 04:25:42;;;;;;;18.27;13.37;;;;;;;;;;5064891;28;20683;-77
2022/11/28 04:28:11;;;;;;;21.53;14.60;;;;;;;;;;5084648;28;20675;-76
2022/11/28 04:30:38;;;;;;;19.73;14.20;;;;;;;;;;5071396;28;20234;-76
2022/11/28 04:33:07;;;;;;;18.90;14.20;;;;;;;;;;5092124;28;20180;-75
2022/11/28 04:35:36;;;;;;;22.77;15.50;;;;;;;;;;5082235;28;20176;-76
2022/11/28 04:38:04;;;;;;;21.40;16.47;;;;;;;;;;5072566;28;20196;-77
2022/11/28 04:40:31;;;;;;;20.63;15.97;;;;;;;;;;5077548;28;20276;-76
2022/11/28 04:43:00;;;;;;;19.93;14.87;;;;;;;;;;5094269;28;20200;-79
2022/11/28 04:45:28;;;;;;;18.67;14.30;;;;;;;;;;5083315;28;20173;-76
2022/11/28 04:47:55;;;;;;;17.50;13.83;;;;;;;;;;5090619;28;20824;-76
2022/11/28 04:50:23;;;;;;;18.73;13.87;;;;;;;;;;5096281;28;20219;-76
2022/11/28 04:52:52;;;;;;;17.17;13.63;;;;;;;;;;5085009;28;20616;-76
2022/11/28 04:55:24;;;;;;;17.73;12.37;;;;;;;;;;5102560;28;20168;-77
2022/11/28 04:57:56;;;;;;;18.17;13.87;;;;;;;;;;5073143;28;20312;-76
2022/11/28 05:00:22;;;;;;;17.27;13.27;;;;;;;;;;5046032;28;20194;-77
2022/11/28 05:02:52;;;;;;;16.03;12.43;;;;;;;;;;5085227;28;20196;-77
2022/11/28 05:05:20;;;;;;;16.50;12.43;;;;;;;;;;5089227;28;20177;-76
2022/11/28 05:07:46;;;;;;;17.60;13.10;;;;;;;;;;5070573;28;20199;-77
2022/11/28 05:10:13;;;;;;;18.17;13.20;;;;;;;;;;5100932;28;20300;-76
2022/11/28 05:12:39;;;;;;;15.67;12.10;;;;;;;;;;5084760;28;20183;-76
2022/11/28 05:15:05;;;;;;;14.53;11.23;;;;;;;;;;5091422;28;20319;-77
2022/11/28 05:17:32;;;;;;;16.37;13.07;;;;;;;;;;5085819;28;20200;-76
2022/11/28 05:19:58;;;;;;;18.33;13.67;;;;;;;;;;5096381;28;20180;-76
2022/11/28 05:22:24;;;;;;;14.93;11.70;;;;;;;;;;5085402;28;20204;-77
2022/11/28 05:24:51;;;;;;;15.20;11.63;;;;;;;;;;5076095;28;20175;-76
2022/11/28 05:27:18;;;;;;;15.37;11.97;;;;;;;;;;5071156;28;20847;-77
2022/11/28 05:29:45;;;;;;;14.57;11.53;;;;;;;;;;5075315;28;20592;-77
2022/11/28 05:32:14;;;;;;;13.90;10.67;;;;;;;;;;5098778;28;21627;-77
2022/11/28 05:34:40;;;;;;;14.63;10.60;;;;;;;;;;5075915;28;20168;-76
2022/11/28 05:37:06;;;;;;;14.10;10.63;;;;;;;;;;5092852;28;20227;-77
2022/11/28 05:39:32;;;;;;;14.70;10.37;;;;;;;;;;5081657;28;20188;-76
2022/11/28 05:41:58;;;;;;;16.77;11.90;;;;;;;;;;5085188;28;20263;-76
2022/11/28 05:44:24;;;;;;;12.53;10.27;;;;;;;;;;5098745;28;20243;-77
2022/11/28 05:46:51;;;;;;;15.23;11.93;;;;;;;;;;5071695;28;20417;-77
2022/11/28 05:49:20;;;;;;;13.83;11.07;;;;;;;;;;5078909;28;20255;-78
2022/11/28 05:51:47;;;;;;;13.73;11.27;;;;;;;;;;5096906;28;20179;-78
2022/11/28 05:54:13;;;;;;;13.27;10.03;;;;;;;;;;5100353;28;20175;-77
2022/11/28 05:56:39;;;;;;;12.00;9.70;;;;;;;;;;5086314;28;20196;-76
2022/11/28 05:59:06;;;;;;;13.83;11.00;;;;;;;;;;5088841;28;20192;-78
2022/11/28 06:01:32;;;;;;;11.93;10.07;;;;;;;;;;5058839;28;20173;-78
2022/11/28 06:03:59;;;;;;;16.37;11.87;;;;;;;;;;5086260;28;20224;-78
2022/11/28 06:06:27;;;;;;;14.57;11.33;;;;;;;;;;5088061;28;20231;-77
2022/11/28 06:08:54;;;;;;;15.73;12.17;;;;;;;;;;5091774;28;20177;-76
2022/11/28 06:11:21;;;;;;;16.03;11.10;;;;;;;;;;5091350;28;20184;-77
2022/11/28 06:13:47;;;;;;;14.82;12.02;;;;;;;;;;5094237;28;21319;-78
2022/11/28 06:16:20;;;;;;;14.07;11.13;;;;;;;;;;5067063;28;20272;-80
2022/11/28 06:18:46;;;;;;;14.00;10.93;;;;;;;;;;5096327;28;20188;-78
2022/11/28 06:21:14;;;;;;;12.93;10.80;;;;;;;;;;5059807;28;20193;-79
2022/11/28 06:23:41;;;;;;;14.70;10.73;;;;;;;;;;5077195;28;20216;-79
2022/11/28 06:26:09;;;;;;;13.73;11.10;;;;;;;;;;5098874;28;20215;-81
2022/11/28 06:28:35;;;;;;;13.52;10.68;;;;;;;;;;5076290;28;20924;-80
2022/11/28 06:31:01;;;;;;;14.00;10.40;;;;;;;;;;5094590;28;20175;-80
2022/11/28 06:33:28;;;;;;;13.30;10.10;;;;;;;;;;5088728;28;20181;-80
2022/11/28 06:36:00;;;;;;;16.27;10.97;;;;;;;;;;5060146;28;20181;-80
2022/11/28 06:38:27;;;;;;;12.67;9.30;;;;;;;;;;5095907;28;20204;-82
2022/11/28 06:41:01;;;;;;;13.27;9.87;;;;;;;;;;5084157;28;20293;-80
2022/11/28 06:43:27;;;;;;;16.43;11.80;;;;;;;;;;5101181;28;20200;-83
2022/11/28 06:45:53;;;;;;;13.73;10.90;;;;;;;;;;5076020;28;20426;-83
2022/11/28 06:48:19;;;;;;;14.33;11.20;;;;;;;;;;5073673;28;20200;-81
2022/11/28 06:50:46;;;;;;;13.93;11.90;;;;;;;;;;5067487;28;20554;-80
2022/11/28 06:53:13;;;;;;;13.47;10.27;;;;;;;;;;5092633;28;20199;-80
2022/11/28 06:55:39;;;;;;;12.80;10.43;;;;;;;;;;5091667;28;20412;-83
2022/11/28 06:58:06;;;;;;;10.93;9.20;;;;;;;;;;5085981;28;20324;-82
2022/11/28 07:00:32;;;;;;;10.47;8.90;;;;;;;;;;5078064;28;20199;-81
2022/11/28 07:02:58;;;;;;;10.90;8.30;;;;;;;;;;5086568;28;20295;-84
2022/11/28 07:05:29;;;;;;;10.57;8.80;;;;;;;;;;5083069;28;20640;-78
2022/11/28 07:07:59;;;;;;;11.73;8.77;;;;;;;;;;5089571;28;20254;-78
2022/11/28 07:10:26;;;;;;;14.37;8.57;;;;;;;;;;5087279;28;20240;-79
2022/11/28 07:12:53;;;;;;;15.93;9.83;;;;;;;;;;5094232;28;20832;-79
2022/11/28 07:15:20;;;;;;;11.40;8.33;;;;;;;;;;5079437;28;20318;-78
2022/11/28 07:17:46;;;;;;;10.23;8.13;;;;;;;;;;5074499;28;20200;-77
2022/11/28 07:20:12;;;;;;;11.23;8.53;;;;;;;;;;5087251;28;20188;-79
2022/11/28 07:22:38;;;;;;;10.90;7.83;;;;;;;;;;5066896;28;20200;-79
2022/11/28 07:25:05;;;;;;;9.80;8.23;;;;;;;;;;5064632;28;20536;-79
2022/11/28 07:27:31;;;;;;;11.03;8.03;;;;;;;;;;5102303;28;20196;-79
2022/11/28 07:29:58;;;;;;;10.80;7.97;;;;;;;;;;5077589;28;20260;-79
2022/11/28 07:32:24;;;;;;;9.03;7.73;;;;;;;;;;5073971;28;20195;-79
2022/11/28 07:34:50;;;;;;;10.43;7.37;;;;;;;;;;5048174;28;20177;-79
2022/11/28 07:37:16;;;;;;;9.40;7.20;;;;;;;;;;5072062;28;20232;-79
2022/11/28 07:39:43;;;;;;;9.33;7.97;;;;;;;;;;5081484;28;20643;-79
2022/11/28 07:42:10;;;;;;;9.13;7.87;;;;;;;;;;5091409;28;20242;-79
2022/11/28 07:44:36;;;;;;;8.83;7.63;;;;;;;;;;5093674;28;20184;-79
2022/11/28 07:47:02;;;;;;;9.27;7.50;;;;;;;;;;5103625;28;20211;-79
2022/11/28 07:49:28;;;;;;;8.70;7.23;;;;;;;;;;5070219;28;20250;-79
2022/11/28 07:51:54;;;;;;;9.17;7.33;;;;;;;;;;5068163;28;20168;-79
2022/11/28 07:54:24;;;;;;;9.60;7.33;;;;;;;;;;5065459;28;20179;-79
2022/11/28 07:56:50;;;;;;;9.87;6.87;;;;;;;;;;5091984;28;20195;-79
2022/11/28 07:59:16;;;;;;;9.47;7.90;;;;;;;;;;5098788;28;20551;-79
2022/11/28 08:01:42;;;;;;;8.77;7.40;;;;;;;;;;5044730;28;20557;-79
2022/11/28 08:04:09;;;;;;;10.00;7.30;;;;;;;;;;5066458;28;20227;-79
2022/11/28 08:06:39;;;;;;;11.17;7.90;;;;;;;;;;5083645;28;20199;-79
2022/11/28 08:09:06;;;;;;;10.13;7.47;;;;;;;;;;5076489;28;20192;-79
2022/11/28 08:11:33;;;;;;;12.03;8.40;;;;;;;;;;5088353;28;20202;-79
2022/11/28 08:13:59;;;;;;;9.97;7.83;;;;;;;;;;5096515;28;20258;-79
2022/11/28 08:16:26;;;;;;;11.47;8.27;;;;;;;;;;5060752;28;20523;-79
2022/11/28 08:18:53;;;;;;;10.23;7.40;;;;;;;;;;5073169;28;20556;-79
2022/11/28 08:21:24;;;;;;;9.27;7.47;;;;;;;;;;5057740;28;20183;-79
2022/11/28 08:23:51;;;;;;;13.03;8.23;;;;;;;;;;5074730;28;20204;-79
2022/11/28 08:26:19;;;;;;;10.87;8.00;;;;;;;;;;5077305;28;20197;-79
2022/11/28 08:28:46;;;;;;;10.90;8.00;;;;;;;;;;5101449;28;20176;-79
2022/11/28 08:31:16;;;;;;;9.70;7.97;;;;;;;;;;5086081;28;20237;-79
2022/11/28 08:33:43;;;;;;;11.57;7.87;;;;;;;;;;5100680;28;20629;-79
2022/11/28 08:36:10;;;;;;;10.67;8.00;;;;;;;;;;5093755;28;20172;-80
2022/11/28 08:38:37;;;;;;;11.53;8.13;;;;;;;;;;5090155;28;20710;-79
2022/11/28 08:41:04;;;;;;;14.03;8.47;;;;;;;;;;5052495;28;20211;-80
2022/11/28 08:43:31;;;;;;;10.63;8.07;;;;;;;;;;5070943;28;20598;-80
2022/11/28 08:45:57;;;;;;;10.70;8.07;;;;;;;;;;5076424;28;20213;-80
2022/11/28 08:48:23;;;;;;;9.70;7.77;;;;;;;;;;5065545;28;20909;-84
2022/11/28 08:50:49;;;;;;;10.37;8.20;;;;;;;;;;5067256;28;20194;-83
2022/11/28 08:53:16;;;;;;;11.77;8.70;;;;;;;;;;5072505;28;20203;-81
2022/11/28 08:55:43;;;;;;;11.60;8.50;;;;;;;;;;5067763;28;20220;-82
2022/11/28 08:58:12;;;;;;;11.40;8.50;;;;;;;;;;5067884;28;20203;-78
2022/11/28 09:00:39;;;;;;;11.10;8.83;;;;;;;;;;5050736;28;20573;-79
2022/11/28 09:03:05;;;;;;;12.53;9.10;;;;;;;;;;5078957;28;20212;-78
2022/11/28 09:05:31;;;;;;;10.53;8.40;;;;;;;;;;5081587;28;20180;-78
2022/11/28 09:07:58;;;;;;;14.07;9.20;;;;;;;;;;5069365;28;20208;-78
2022/11/28 09:10:24;;;;;;;10.53;8.73;;;;;;;;;;5080465;28;20188;-78
2022/11/28 09:12:50;;;;;;;13.70;9.37;;;;;;;;;;5093270;28;20248;-78
2022/11/28 09:15:17;;;;;;;14.13;9.07;;;;;;;;;;5078800;28;20230;-78
2022/11/28 09:17:44;;;;;;;13.40;9.00;;;;;;;;;;5095119;28;20206;-78
2022/11/28 09:20:11;;;;;;;11.60;8.63;;;;;;;;;;5090878;28;20234;-78
2022/11/28 09:22:37;;;;;;;16.87;9.53;;;;;;;;;;5087300;28;20204;-78
2022/11/28 09:25:04;;;;;;;11.37;9.03;;;;;;;;;;5092766;28;20181;-78
2022/11/28 09:27:30;;;;;;;13.13;9.00;;;;;;;;;;5071239;28;20228;-78
2022/11/28 09:29:56;;;;;;;14.27;9.90;;;;;;;;;;5097910;28;21160;-79
2022/11/28 09:32:22;;;;;;;13.43;9.37;;;;;;;;;;5092635;28;20266;-77
2022/11/28 09:34:50;;;;;;;12.33;8.60;;;;;;;;;;5067955;28;20184;-78
2022/11/28 09:37:16;;;;;;;13.27;9.13;;;;;;;;;;5094371;28;20678;-78
2022/11/28 09:39:42;;;;;;;13.77;9.57;;;;;;;;;;5078259;28;20770;-78
2022/11/28 09:42:16;;;;;;;12.50;8.80;;;;;;;;;;5084568;28;20242;-78
2022/11/28 09:44:47;;;;;;;10.70;8.40;;;;;;;;;;5086941;28;20181;-78
2022/11/28 09:47:18;;;;;;;9.40;7.87;;;;;;;;;;5089838;28;20204;-78
2022/11/28 09:49:53;;;;;;;10.40;7.97;;;;;;;;;;5084284;28;20175;-78
2022/11/28 09:52:32;;;;;;;10.60;7.87;;;;;;;;;;5084166;28;20205;-78
2022/11/28 09:55:04;;;;;;;9.83;7.13;;;;;;;;;;5082356;28;20267;-79
2022/11/28 09:57:41;;;;;;;11.93;7.90;;;;;;;;;;5054793;28;20212;-79
2022/11/28 10:00:15;;;;;;;9.13;7.27;;;;;;;;;;5098307;28;20724;-78
2022/11/28 10:02:48;;;;;;;10.43;7.70;;;;;;;;;;5085728;28;20258;-78
2022/11/28 10:05:25;;;;;;;10.10;7.37;;;;;;;;;;5089104;28;20619;-78
2022/11/28 10:07:51;;;;;;;10.40;7.37;;;;;;;;;;5078593;28;20208;-78
2022/11/28 10:10:20;;;;;;;12.40;7.33;;;;;;;;;;5090464;28;20229;-78
2022/11/28 10:12:49;;;;;;;9.13;7.30;;;;;;;;;;5091638;28;20188;-79
2022/11/28 10:15:22;;;;;;;9.70;7.07;;;;;;;;;;5084378;28;20712;-79
2022/11/28 10:17:59;;;;;;;10.73;7.40;;;;;;;;;;5087250;28;20232;-78
2022/11/28 10:20:26;;;;;;;9.63;7.00;;;;;;;;;;5095491;28;20183;-79
2022/11/28 10:22:57;;;;;;;11.27;8.17;;;;;;;;;;5091783;28;20265;-78
2022/11/28 10:25:29;;;;;;;9.37;7.20;;;;;;;;;;5062966;28;20188;-78
2022/11/28 10:27:56;;;;;;;9.40;7.07;;;;;;;;;;5088359;28;20207;-79
2022/11/28 10:30:26;;;;;;;8.17;6.60;;;;;;;;;;5081606;28;20173;-78
2022/11/28 10:33:04;;;;;;;10.00;7.53;;;;;;;;;;5084738;28;20223;-79
2022/11/28 10:35:47;;;;;;;8.60;7.07;;;;;;;;;;5087650;28;20541;-78
2022/11/28 10:38:14;;;;;;;11.57;7.67;;;;;;;;;;5093170;28;20751;-78
2022/11/28 10:40:40;;;;;;;9.13;7.47;;;;;;;;;;5091389;28;20181;-79
2022/11/28 10:43:13;;;;;;;11.43;7.47;;;;;;;;;;5097383;28;20343;-78
2022/11/28 10:45:51;;;;;;;9.33;7.13;;;;;;;;;;5067604;28;20229;-79
2022/11/28 10:48:32;;;;;;;8.93;7.10;;;;;;;;;;5082331;28;20981;-78
2022/11/28 10:51:37;;;;;;;9.57;6.90;;;;;;;;;;5087781;28;20172;-79
2022/11/28 10:54:17;;;;;;;9.37;7.13;;;;;;;;;;5027757;28;20200;-78
2022/11/28 10:56:49;;;;;;;8.73;6.83;;;;;;;;;;5052082;28;20268;-78
2022/11/28 10:59:24;;;;;;;9.10;7.00;;;;;;;;;;5047577;28;20199;-78
2022/11/28 11:01:51;;;;;;;10.70;8.23;;;;;;;;;;5076390;28;20184;-78
2022/11/28 11:04:19;;;;;;;8.53;7.10;;;;;;;;;;5084883;28;20190;-78
2022/11/28 11:06:53;;;;;;;10.07;7.77;;;;;;;;;;5083330;28;20253;-78
2022/11/28 11:09:19;;;;;;;12.03;8.10;;;;;;;;;;5091836;28;20240;-78
2022/11/28 11:11:52;;;;;;;9.97;7.23;;;;;;;;;;5073319;28;20534;-78
2022/11/28 11:14:32;;;;;;;10.37;7.87;;;;;;;;;;5097416;28;20230;-79
2022/11/28 11:16:58;;;;;;;9.60;7.40;;;;;;;;;;5085301;28;20188;-79
2022/11/28 11:19:38;;;;;;;9.90;7.23;;;;;;;;;;5099686;28;20180;-82
2022/11/28 11:22:04;;;;;;;10.43;8.03;;;;;;;;;;5056321;28;20209;-80
2022/11/28 11:24:31;;;;;;;10.23;7.20;;;;;;;;;;5088401;28;20187;-83
2022/11/28 11:27:23;;;;;;;9.57;7.70;;;;;;;;;;5070700;28;20286;-82
2022/11/28 11:29:50;;;;;;;8.83;7.30;;;;;;;;;;5093464;28;20184;-87
2022/11/28 11:32:28;;;;;;;9.90;6.90;;;;;;;;;;5078170;28;20179;-85
2022/11/28 11:34:55;;;;;;;9.60;7.53;;;;;;;;;;5045980;28;20253;-80
2022/11/28 11:37:35;;;;;;;9.73;6.83;;;;;;;;;;5081915;28;20694;-83
2022/11/28 11:40:02;;;;;;;8.47;6.50;;;;;;;;;;5083384;28;20193;-81
2022/11/28 11:42:30;;;;;;;10.43;6.87;;;;;;;;;;5076521;28;20214;-81
2022/11/28 11:44:56;;;;;;;11.87;7.17;;;;;;;;;;5076632;28;20213;-82
2022/11/28 11:47:42;;;;;;;8.33;6.47;;;;;;;;;;5072375;28;20191;-80
2022/11/28 11:50:18;;;;;;;7.30;6.07;;;;;;;;;;5051066;28;20176;-82
2022/11/28 11:52:59;;;;;;;9.07;6.97;;;;;;;;;;5100492;28;20183;-82
2022/11/28 11:55:27;;;;;;;9.27;6.30;;;;;;;;;;5070104;28;20758;-83
2022/11/28 11:57:54;;;;;;;8.37;6.73;;;;;;;;;;5055091;28;20209;-85
2022/11/28 12:00:21;;;;;;;10.67;7.17;;;;;;;;;;5055424;28;20714;-85
2022/11/28 12:03:02;;;;;;;8.43;6.50;;;;;;;;;;5082314;28;20683;-85
2022/11/28 12:05:30;;;;;;;9.17;7.10;;;;;;;;;;5076758;28;20271;-87
2022/11/28 12:08:15;;;;;;;10.60;7.37;;;;;;;;;;5081400;28;20222;-86
2022/11/28 12:11:00;;;;;;;7.63;6.73;;;;;;;;;;5068194;28;20227;-85
2022/11/28 12:13:26;;;;;;;9.33;7.00;;;;;;;;;;5058201;28;20192;-84
2022/11/28 12:15:55;;;;;;;9.17;7.27;;;;;;;;;;5086089;28;20189;-86
2022/11/28 12:18:48;;;;;;;7.80;7.00;;;;;;;;;;5075108;28;20206;-85
2022/11/28 12:21:22;;;;;;;8.90;6.70;;;;;;;;;;5057495;28;20184;-85
2022/11/28 12:24:00;;;;;;;11.17;7.70;;;;;;;;;;5102999;28;20782;-85
2022/11/28 12:26:45;;;;;;;10.10;8.23;;;;;;;;;;5083530;28;20195;-86
2022/11/28 12:29:19;;;;;;;10.50;7.80;;;;;;;;;;5077843;28;20176;-85
2022/11/28 12:32:01;;;;;;;10.50;7.30;;;;;;;;;;5068325;28;20407;-80
2022/11/28 12:34:31;;;;;;;9.77;7.20;;;;;;;;;;5074415;28;20189;-84
2022/11/28 12:37:23;;;;;;;9.67;6.70;;;;;;;;;;5073280;28;20683;-84
2022/11/28 12:39:56;;;;;;;9.07;7.50;;;;;;;;;;5072092;28;20208;-84
2022/11/28 12:42:27;;;;;;;9.40;7.10;;;;;;;;;;5062349;28;20213;-84
2022/11/28 12:44:58;;;;;;;9.07;7.13;;;;;;;;;;5070174;28;20169;-85
2022/11/28 12:47:27;;;;;;;9.40;7.57;;;;;;;;;;5073952;28;20285;-83
2022/11/28 12:50:11;;;;;;;9.47;7.07;;;;;;;;;;5087660;28;20202;-83
2022/11/28 12:52:50;;;;;;;9.77;7.10;;;;;;;;;;5067212;28;20184;-85
2022/11/28 12:55:16;;;;;;;9.40;7.30;;;;;;;;;;5069601;28;20279;-84
2022/11/28 12:57:51;;;;;;;10.60;7.70;;;;;;;;;;5059949;28;20294;-85
2022/11/28 13:00:24;;;;;;;9.27;7.73;;;;;;;;;;5079363;28;20205;-85
2022/11/28 13:03:10;;;;;;;10.07;7.73;;;;;;;;;;5083992;28;20208;-84
2022/11/28 13:05:57;;;;;;;8.90;7.23;;;;;;;;;;5075066;28;20284;-85
2022/11/28 13:08:26;;;;;;;9.80;7.33;;;;;;;;;;5086955;28;20283;-84
2022/11/28 13:10:56;;;;;;;8.77;6.93;;;;;;;;;;5064542;28;20189;-84
2022/11/28 13:13:23;;;;;;;11.83;8.27;;;;;;;;;;5042241;28;20227;-84
2022/11/28 13:15:59;;;;;;;12.43;8.67;;;;;;;;;;5082394;28;20187;-84
2022/11/28 13:18:45;;;;;;;10.77;8.70;;;;;;;;;;5077310;28;20207;-84
2022/11/28 13:21:28;;;;;;;12.23;8.33;;;;;;;;;;5097186;28;20243;-84
2022/11/28 13:24:02;;;;;;;12.40;7.67;;;;;;;;;;5079198;28;20240;-84
2022/11/28 13:26:37;;;;;;;12.43;8.40;;;;;;;;;;5060190;28;20203;-84
2022/11/28 13:29:22;;;;;;;11.97;8.23;;;;;;;;;;5065698;28;20185;-85
2022/11/28 13:31:48;;;;;;;11.10;8.30;;;;;;;;;;5082709;28;20195;-84
2022/11/28 13:34:16;;;;;;;14.57;8.90;;;;;;;;;;5081070;28;20665;-85
2022/11/28 13:37:02;;;;;;;12.40;8.63;;;;;;;;;;5058174;28;20208;-84
2022/11/28 13:39:36;;;;;;;16.37;9.77;;;;;;;;;;5068740;28;20294;-84
2022/11/28 13:42:18;;;;;;;12.30;9.23;;;;;;;;;;5089414;28;20253;-83
2022/11/28 13:44:50;;;;;;;12.37;9.37;;;;;;;;;;5068742;28;20187;-84
2022/11/28 13:47:23;;;;;;;11.00;8.77;;;;;;;;;;5069850;28;20785;-84
2022/11/28 13:49:50;;;;;;;13.43;9.43;;;;;;;;;;5068105;28;20401;-85
2022/11/28 13:52:20;;;;;;;13.13;10.00;;;;;;;;;;5082486;28;20162;-83
2022/11/28 13:54:49;;;;;;;13.10;10.20;;;;;;;;;;5073891;28;20216;-85
2022/11/28 13:57:30;;;;;;;12.80;9.33;;;;;;;;;;5088381;28;20192;-84
2022/11/28 13:59:56;;;;;;;15.90;10.07;;;;;;;;;;5071982;28;20195;-83
2022/11/28 14:02:39;;;;;;;14.73;10.40;;;;;;;;;;5060246;28;20739;-83
2022/11/28 14:05:14;;;;;;;13.33;11.00;;;;;;;;;;5073249;28;20181;-81
2022/11/28 14:07:45;;;;;;;13.87;10.60;;;;;;;;;;5086408;28;20263;-85
2022/11/28 14:10:44;;;;;;;17.13;11.30;;;;;;;;;;5058192;28;20172;-85
2022/11/28 14:13:22;;;;;;;12.47;9.67;;;;;;;;;;5006050;28;20864;-84
2022/11/28 14:16:00;;;;;;;12.03;9.43;;;;;;;;;;5072769;28;20177;-84
2022/11/28 14:18:30;;;;;;;13.67;9.57;;;;;;;;;;5058537;28;20204;-84
2022/11/28 14:21:10;;;;;;;10.97;9.33;;;;;;;;;;5072067;28;20173;-84
2022/11/28 14:23:47;;;;;;;12.63;9.07;;;;;;;;;;5037598;28;20235;-84
2022/11/28 14:26:34;;;;;;;10.63;8.07;;;;;;;;;;5071609;28;20230;-85
2022/11/28 14:29:00;;;;;;;10.60;8.60;;;;;;;;;;5063092;28;20184;-83
2022/11/28 14:31:39;;;;;;;10.40;7.73;;;;;;;;;;5088003;28;20187;-83
2022/11/28 14:34:26;;;;;;;11.83;7.70;;;;;;;;;;5061944;28;20237;-83
2022/11/28 14:37:12;;;;;;;9.97;8.00;;;;;;;;;;5066855;28;20272;-83
2022/11/28 14:39:38;;;;;;;11.90;9.57;;;;;;;;;;5063294;28;20192;-83
2022/11/28 14:42:08;;;;;;;10.20;8.57;;;;;;;;;;5075161;28;20189;-82
2022/11/28 14:44:54;;;;;;;9.97;8.30;;;;;;;;;;5072665;28;20238;-83
2022/11/28 14:47:25;;;;;;;11.90;9.07;;;;;;;;;;5076538;28;20192;-83